Time;durP1;ratioP1;P1;durP2;ratioP2;P2;SDS_P1;SDS_P2;PMS_P1;PMS_P2;Temp;Humidity;BMP_temperature;BMP_pressure;BME280_temperature;BME280_humidity;BME280_pressure;Samples;Min_cycle;Max_cycle;Signal;HPM_P1;HPM_P2
2021/05/25 00:01:15;;;;;;;0.70;0.60;;;;;;;9.36;71.61;98891.78;5053010;28;20057;-79
2021/05/25 00:03:42;;;;;;;0.95;0.40;;;;;;;9.27;71.92;98880.16;5052052;28;20079;-79
2021/05/25 00:06:09;;;;;;;1.35;0.65;;;;;;;9.17;72.10;98874.16;5047037;28;20056;-79
2021/05/25 00:08:35;;;;;;;1.52;0.60;;;;;;;9.02;71.82;98860.56;5052491;28;20049;-79
2021/05/25 00:11:01;;;;;;;3.20;0.60;;;;;;;9.08;72.51;98864.38;5052244;28;20060;-79
2021/05/25 00:13:28;;;;;;;1.23;0.60;;;;;;;9.10;71.41;98865.06;5051730;28;20397;-79
2021/05/25 00:15:54;;;;;;;1.75;0.98;;;;;;;8.96;71.22;98850.44;5036820;28;20524;-80
2021/05/25 00:18:21;;;;;;;3.88;0.80;;;;;;;8.95;71.48;98854.16;5042265;28;20045;-80
2021/05/25 00:20:50;;;;;;;1.65;0.70;;;;;;;8.87;72.04;98833.41;5052235;28;20044;-80
2021/05/25 00:23:16;;;;;;;1.95;0.80;;;;;;;8.97;72.85;98866.53;5052500;28;20144;-79
2021/05/25 00:25:43;;;;;;;1.17;0.50;;;;;;;8.85;71.90;98852.56;5051801;28;20095;-79
2021/05/25 00:28:09;;;;;;;1.25;0.50;;;;;;;8.95;72.29;98871.28;5051956;28;20049;-79
2021/05/25 00:30:36;;;;;;;1.15;0.70;;;;;;;8.75;71.61;98857.38;5050690;28;20056;-78
2021/05/25 00:33:02;;;;;;;6.28;0.82;;;;;;;8.69;72.18;98858.09;5051202;28;20048;-80
2021/05/25 00:35:33;;;;;;;3.35;0.70;;;;;;;8.80;73.10;98865.78;5051625;28;20063;-78
2021/05/25 00:38:01;;;;;;;0.73;0.52;;;;;;;8.70;72.47;98846.22;5048593;28;20081;-79
2021/05/25 00:40:27;;;;;;;0.75;0.60;;;;;;;8.79;72.10;98869.53;5051987;28;20053;-79
2021/05/25 00:42:53;;;;;;;0.68;0.50;;;;;;;8.64;73.01;98849.66;5044308;28;20041;-79
2021/05/25 00:45:19;;;;;;;0.57;0.45;;;;;;;8.75;71.97;98861.97;5035244;28;20049;-79
2021/05/25 00:47:47;;;;;;;1.50;0.50;;;;;;;8.61;72.79;98858.13;5048408;28;20045;-79
2021/05/25 00:50:16;;;;;;;1.13;0.60;;;;;;;8.60;73.57;98870.84;5052057;28;20060;-79
2021/05/25 00:52:45;;;;;;;1.20;0.50;;;;;;;8.65;72.42;98865.72;5051751;28;20441;-79
2021/05/25 00:55:15;;;;;;;0.75;0.63;;;;;;;8.57;73.49;98870.38;5050887;28;20045;-80
2021/05/25 00:57:43;;;;;;;1.02;0.57;;;;;;;8.50;72.40;98862.94;5052053;28;20053;-79
2021/05/25 01:00:11;;;;;;;3.40;0.68;;;;;;;8.36;72.64;98854.72;5050713;28;20485;-79
2021/05/25 01:02:37;;;;;;;1.35;0.60;;;;;;;8.39;73.27;98879.59;5050484;28;20056;-79
2021/05/25 01:05:05;;;;;;;2.15;0.85;;;;;;;8.26;74.18;98882.00;5047361;28;20096;-79
2021/05/25 01:07:31;;;;;;;1.27;0.57;;;;;;;7.97;74.71;98870.81;5036809;28;20049;-80
2021/05/25 01:10:00;;;;;;;1.10;0.70;;;;;;;7.96;75.55;98873.69;5049215;28;20045;-80
2021/05/25 01:12:31;;;;;;;1.80;0.70;;;;;;;7.94;75.47;98878.44;5051171;28;20106;-79
2021/05/25 01:15:02;;;;;;;2.72;0.65;;;;;;;7.96;74.90;98877.25;5051369;28;20057;-79
2021/05/25 01:17:28;;;;;;;2.17;0.68;;;;;;;8.08;74.85;98882.28;5046756;28;20073;-79
2021/05/25 01:19:55;;;;;;;1.77;0.70;;;;;;;8.13;76.25;98891.56;5050847;28;20481;-79
2021/05/25 01:22:22;;;;;;;5.38;0.80;;;;;;;8.04;74.44;98887.19;5043693;28;20057;-79
2021/05/25 01:24:48;;;;;;;1.15;0.60;;;;;;;8.15;73.75;98877.84;5050816;28;20049;-79
2021/05/25 01:27:14;;;;;;;1.48;0.50;;;;;;;8.05;74.99;98875.34;5044410;28;20324;-79
2021/05/25 01:29:41;;;;;;;3.13;0.80;;;;;;;8.17;74.03;98896.63;5031589;28;20053;-79
2021/05/25 01:32:07;;;;;;;1.00;0.70;;;;;;;8.01;74.40;98882.13;5050225;28;20056;-79
2021/05/25 01:34:36;;;;;;;3.65;0.90;;;;;;;8.04;74.58;98886.34;5042784;28;20060;-79
2021/05/25 01:37:02;;;;;;;1.25;0.60;;;;;;;7.88;74.06;98866.44;5047363;28;20106;-80
2021/05/25 01:39:30;;;;;;;0.75;0.57;;;;;;;8.07;74.75;98881.44;5050077;28;20460;-78
2021/05/25 01:41:56;;;;;;;1.08;0.70;;;;;;;8.15;75.00;98886.81;5051231;28;20053;-78
2021/05/25 01:44:22;;;;;;;3.75;0.60;;;;;;;8.07;75.23;98886.84;5050205;28;20505;-78
2021/05/25 01:46:51;;;;;;;1.75;0.70;;;;;;;8.20;74.07;98899.81;5050272;28;20477;-78
2021/05/25 01:49:18;;;;;;;2.20;0.63;;;;;;;8.05;73.93;98883.47;5040404;28;20281;-78
2021/05/25 01:51:48;;;;;;;3.00;0.60;;;;;;;8.09;74.30;98897.50;5035490;28;20053;-78
2021/05/25 01:54:14;;;;;;;2.10;0.80;;;;;;;8.15;74.49;98896.81;5049153;28;20055;-78
2021/05/25 01:56:42;;;;;;;1.55;0.60;;;;;;;8.04;73.81;98880.94;5050679;28;20424;-78
2021/05/25 01:59:09;;;;;;;1.80;0.70;;;;;;;8.00;74.25;98888.56;5044147;28;20422;-78
2021/05/25 02:01:35;;;;;;;2.22;0.70;;;;;;;7.93;74.54;98880.31;5039161;28;20115;-78
2021/05/25 02:04:02;;;;;;;3.58;0.73;;;;;;;7.88;74.88;98882.69;5044101;28;20045;-79
2021/05/25 02:06:29;;;;;;;1.90;0.70;;;;;;;8.10;74.68;98891.91;5049225;28;20087;-79
2021/05/25 02:08:55;;;;;;;2.40;0.80;;;;;;;7.95;76.41;98893.66;5049983;28;20041;-78
2021/05/25 02:11:22;;;;;;;2.25;0.75;;;;;;;7.83;75.43;98893.19;5051014;28;20053;-78
2021/05/25 02:13:49;;;;;;;0.60;0.60;;;;;;;7.65;76.96;98895.25;5050523;28;20049;-78
2021/05/25 02:16:18;;;;;;;1.85;0.75;;;;;;;7.67;77.46;98890.53;5050459;28;20484;-78
2021/05/25 02:18:46;;;;;;;0.93;0.63;;;;;;;7.60;77.52;98895.78;5039878;28;20511;-78
2021/05/25 02:21:14;;;;;;;0.98;0.80;;;;;;;7.83;76.63;98901.31;5043771;28;20057;-78
2021/05/25 02:23:41;;;;;;;0.95;0.88;;;;;;;7.89;76.68;98905.16;5045825;28;20045;-78
2021/05/25 02:26:08;;;;;;;5.88;0.93;;;;;;;7.92;76.78;98889.44;5050254;28;20045;-78
2021/05/25 02:28:34;;;;;;;1.52;0.55;;;;;;;8.08;77.13;98904.75;5049087;28;20053;-78
2021/05/25 02:31:02;;;;;;;3.33;0.80;;;;;;;8.09;77.67;98906.47;5050352;28;20049;-78
2021/05/25 02:33:28;;;;;;;1.48;0.80;;;;;;;7.93;76.85;98895.69;5050056;28;20052;-78
2021/05/25 02:35:57;;;;;;;3.10;1.52;;;;;;;8.10;76.06;98915.41;5037315;28;20060;-78
2021/05/25 02:38:25;;;;;;;1.45;0.60;;;;;;;8.07;76.23;98899.53;5050378;28;20099;-79
2021/05/25 02:40:52;;;;;;;2.92;1.00;;;;;;;8.04;75.96;98903.44;5049117;28;20048;-78
2021/05/25 02:43:20;;;;;;;1.83;0.77;;;;;;;8.08;75.27;98899.34;5050419;28;20049;-78
2021/05/25 02:45:47;;;;;;;4.68;1.13;;;;;;;8.15;75.75;98911.16;5049843;28;20053;-79
2021/05/25 02:48:15;;;;;;;2.53;0.80;;;;;;;8.11;75.77;98899.03;5050231;28;20045;-79
2021/05/25 02:50:41;;;;;;;3.05;1.00;;;;;;;8.10;75.35;98891.03;5049811;28;20497;-78
2021/05/25 02:53:08;;;;;;;2.45;0.73;;;;;;;8.20;75.11;98905.22;5050159;28;20045;-78
2021/05/25 02:55:37;;;;;;;3.78;0.63;;;;;;;8.16;75.17;98914.75;5034461;28;20069;-78
2021/05/25 02:58:05;;;;;;;1.58;0.60;;;;;;;8.12;74.72;98903.41;5050084;28;20045;-78
2021/05/25 03:00:33;;;;;;;3.78;0.93;;;;;;;8.02;74.83;98904.63;5052750;28;20052;-78
2021/05/25 03:03:00;;;;;;;1.85;0.70;;;;;;;8.04;74.87;98922.41;5053997;28;20114;-79
2021/05/25 03:05:27;;;;;;;1.77;0.75;;;;;;;8.07;74.72;98924.75;5053354;28;20480;-78
2021/05/25 03:07:56;;;;;;;6.50;1.10;;;;;;;8.18;75.35;98928.09;5053427;28;20091;-78
2021/05/25 03:10:25;;;;;;;3.63;1.00;;;;;;;8.18;74.77;98920.81;5053199;28;20099;-79
2021/05/25 03:12:52;;;;;;;3.10;0.90;;;;;;;8.18;74.43;98931.66;5052678;28;20091;-78
2021/05/25 03:15:21;;;;;;;3.97;0.90;;;;;;;8.09;73.42;98922.69;5052787;28;20057;-78
2021/05/25 03:17:47;;;;;;;2.00;1.20;;;;;;;8.20;72.15;98939.59;5053830;28;20045;-78
2021/05/25 03:20:15;;;;;;;2.10;0.90;;;;;;;8.23;73.71;98926.53;5040455;28;20060;-78
2021/05/25 03:22:43;;;;;;;2.28;0.70;;;;;;;8.31;73.38;98928.38;5053770;28;20400;-78
2021/05/25 03:25:11;;;;;;;3.42;1.20;;;;;;;8.12;73.49;98911.53;5052382;28;20060;-78
2021/05/25 03:27:38;;;;;;;2.30;0.65;;;;;;;8.05;73.69;98910.53;5053536;28;20053;-78
2021/05/25 03:30:06;;;;;;;1.75;0.77;;;;;;;7.84;74.06;98902.97;5045448;28;20054;-78
2021/05/25 03:32:32;;;;;;;3.90;1.50;;;;;;;7.92;74.61;98915.69;5049558;28;20515;-78
2021/05/25 03:34:58;;;;;;;0.68;0.65;;;;;;;7.85;74.65;98914.69;5052546;28;20469;-79
2021/05/25 03:37:24;;;;;;;4.47;0.70;;;;;;;7.86;74.19;98905.50;5053214;28;20118;-79
2021/05/25 03:39:52;;;;;;;3.13;0.73;;;;;;;7.81;73.49;98924.97;5053092;28;20041;-79
2021/05/25 03:42:18;;;;;;;0.65;0.55;;;;;;;7.83;74.41;98936.50;5052581;28;20492;-79
2021/05/25 03:44:46;;;;;;;5.68;0.98;;;;;;;7.67;74.36;98913.00;5051590;28;20046;-78
2021/05/25 03:47:12;;;;;;;0.88;0.70;;;;;;;7.62;74.35;98918.94;5046765;28;20053;-78
2021/05/25 03:49:39;;;;;;;1.52;0.80;;;;;;;7.61;75.43;98935.34;5052867;28;20045;-79
2021/05/25 03:52:13;;;;;;;2.63;0.80;;;;;;;7.67;74.20;98941.94;5044187;28;20076;-78
2021/05/25 03:54:42;;;;;;;3.17;1.00;;;;;;;7.65;74.46;98947.53;5053003;28;20064;-80
2021/05/25 03:57:13;;;;;;;2.88;0.73;;;;;;;7.78;74.73;98949.69;5049696;28;20473;-78
2021/05/25 03:59:39;;;;;;;2.22;0.80;;;;;;;7.69;74.15;98938.03;5052773;28;20044;-79
2021/05/25 04:02:05;;;;;;;1.02;0.50;;;;;;;7.66;73.79;98935.66;5053096;28;20049;-78
2021/05/25 04:04:32;;;;;;;1.95;0.95;;;;;;;7.84;74.24;98962.53;5051924;28;20060;-78
2021/05/25 04:06:58;;;;;;;4.57;0.85;;;;;;;7.89;73.13;98941.22;5052573;28;20318;-78
2021/05/25 04:09:24;;;;;;;1.13;0.52;;;;;;;7.96;71.26;98960.31;5051187;28;20107;-78
2021/05/25 04:11:50;;;;;;;1.80;0.77;;;;;;;8.10;71.98;98967.72;5052382;28;20122;-79
2021/05/25 04:14:18;;;;;;;1.55;0.63;;;;;;;8.14;70.92;98971.78;5051864;28;20051;-78
2021/05/25 04:16:50;;;;;;;3.55;0.60;;;;;;;8.10;69.98;98961.44;5059238;28;20045;-80
2021/05/25 04:19:16;;;;;;;3.50;0.82;;;;;;;8.19;70.05;98951.44;5053173;28;20057;-79
2021/05/25 04:21:42;;;;;;;2.65;0.80;;;;;;;8.26;69.83;98965.97;5055034;28;20055;-83
2021/05/25 04:24:09;;;;;;;1.00;0.60;;;;;;;8.32;69.08;98973.41;5053105;28;20041;-83
2021/05/25 04:26:35;;;;;;;3.85;0.90;;;;;;;8.29;68.88;98965.63;5051448;28;20052;-83
2021/05/25 04:29:02;;;;;;;2.40;0.85;;;;;;;8.32;69.51;98976.09;5032651;28;20107;-83
2021/05/25 04:31:29;;;;;;;0.95;0.75;;;;;;;8.28;70.96;98975.63;5047139;28;20049;-84
2021/05/25 04:33:57;;;;;;;0.70;0.70;;;;;;;8.14;70.90;98984.47;5051409;28;20492;-84
2021/05/25 04:36:24;;;;;;;3.38;0.77;;;;;;;8.22;71.67;98980.88;5052777;28;20049;-84
2021/05/25 04:38:51;;;;;;;2.42;0.88;;;;;;;8.18;71.29;98985.81;5054129;28;20389;-84
2021/05/25 04:41:17;;;;;;;2.53;0.73;;;;;;;7.94;72.42;98975.88;5053669;28;20373;-85
2021/05/25 04:43:44;;;;;;;1.90;0.70;;;;;;;8.07;71.49;98980.75;5053914;28;20056;-84
2021/05/25 04:46:13;;;;;;;1.13;0.63;;;;;;;8.12;72.35;98997.34;5054122;28;20045;-85
2021/05/25 04:48:40;;;;;;;3.85;0.93;;;;;;;8.16;71.61;98987.84;5053655;28;20048;-84
2021/05/25 04:51:09;;;;;;;2.00;0.80;;;;;;;8.38;70.74;98997.06;5054180;28;20053;-84
2021/05/25 04:53:36;;;;;;;2.83;0.60;;;;;;;8.39;69.21;99001.47;5053731;28;20056;-85
2021/05/25 04:56:02;;;;;;;2.25;0.50;;;;;;;8.42;69.45;98994.88;5053669;28;20053;-85
2021/05/25 04:58:30;;;;;;;1.65;0.75;;;;;;;8.50;69.83;99008.41;5054119;28;20053;-84
2021/05/25 05:00:57;;;;;;;1.10;0.50;;;;;;;8.61;68.48;99015.31;5053715;28;20076;-84
2021/05/25 05:03:25;;;;;;;1.95;0.70;;;;;;;8.78;68.85;99021.50;5054703;28;20060;-85
2021/05/25 05:06:03;;;;;;;1.88;0.80;;;;;;;8.57;68.72;98995.84;5052747;28;20053;-84
2021/05/25 05:08:32;;;;;;;2.70;0.70;;;;;;;8.58;69.79;99002.97;5049388;28;20049;-86
2021/05/25 05:11:09;;;;;;;2.50;0.50;;;;;;;8.56;69.41;99002.28;5052338;28;20060;-85
2021/05/25 05:13:38;;;;;;;5.70;0.70;;;;;;;8.48;68.40;99005.03;5051993;28;20049;-85
2021/05/25 05:16:05;;;;;;;2.70;0.65;;;;;;;8.54;67.45;99030.59;5049385;28;20108;-84
2021/05/25 05:18:37;;;;;;;2.50;1.15;;;;;;;8.55;68.06;99025.00;5052700;28;20703;-84
2021/05/25 05:21:05;;;;;;;2.58;0.63;;;;;;;8.78;69.64;99030.47;5046267;28;20060;-85
2021/05/25 05:23:33;;;;;;;0.40;0.40;;;;;;;8.70;68.29;99003.41;5049119;28;20172;-85
2021/05/25 05:55:45;;;;;;;2.20;0.50;;;;;;;8.93;64.47;99021.59;5213201;22;20050;-85
2021/05/25 05:58:11;;;;;;;3.17;0.43;;;;;;;9.28;64.63;99046.47;5011934;28;20429;-85
2021/05/25 06:00:38;;;;;;;1.02;0.50;;;;;;;9.30;64.62;99049.84;5011386;28;20053;-86
2021/05/25 06:03:05;;;;;;;0.55;0.55;;;;;;;9.38;63.71;99058.78;5010839;28;20050;-84
2021/05/25 06:27:54;;;;;;;0.60;0.35;;;;;;;9.79;60.12;99054.91;5219341;22;20489;-81
2021/05/25 06:30:38;;;;;;;0.57;0.55;;;;;;;9.88;61.73;99042.13;5030156;28;20144;-81
2021/05/25 06:33:05;;;;;;;1.48;0.65;;;;;;;10.12;59.73;99054.63;5033325;28;20108;-81
2021/05/25 06:35:37;;;;;;;2.72;0.47;;;;;;;10.52;58.48;99035.38;5035901;28;20053;-82
2021/05/25 06:38:04;;;;;;;5.57;0.85;;;;;;;10.49;57.75;99052.91;5034349;28;20048;-82
2021/05/25 06:40:31;;;;;;;0.60;0.40;;;;;;;10.45;57.43;99043.44;5034826;28;20073;-82
2021/05/25 06:42:58;;;;;;;2.67;0.50;;;;;;;10.46;57.74;99053.28;5034470;28;20053;-82
2021/05/25 06:45:26;;;;;;;3.88;0.80;;;;;;;10.47;57.89;99068.56;5020739;28;20112;-82
2021/05/25 06:47:57;;;;;;;0.65;0.40;;;;;;;10.36;56.99;99060.88;5025795;28;20049;-81
2021/05/25 06:50:23;;;;;;;1.90;0.90;;;;;;;10.46;57.58;99047.84;5034257;28;20057;-81
2021/05/25 06:52:50;;;;;;;1.15;0.63;;;;;;;10.67;58.21;99057.97;5034248;28;20053;-80
2021/05/25 06:55:16;;;;;;;1.13;0.63;;;;;;;10.89;56.82;99052.63;5034289;28;20042;-81
2021/05/25 06:58:03;;;;;;;;;;;;;;;;;;;;;
2021/05/25 07:00:34;;;;;;;0.85;0.47;;;;;;;11.50;56.10;99053.09;5014839;28;20212;-82
2021/05/25 07:03:14;;;;;;;;;;;;;;;12.49;53.75;99045.97;5032378;28;20056;-83
2021/05/25 07:05:41;;;;;;;1.17;0.40;;;;;;;12.15;52.68;99042.19;5014382;28;19928;-82
2021/05/25 07:08:07;;;;;;;1.20;0.50;;;;;;;12.18;52.96;99043.69;5031802;28;20057;-83
2021/05/25 07:10:33;;;;;;;1.92;0.63;;;;;;;12.19;52.21;99037.16;5033553;28;20139;-84
2021/05/25 07:13:00;;;;;;;0.45;0.45;;;;;;;12.16;51.83;99051.19;5034279;28;20103;-84
2021/05/25 07:15:32;;;;;;;2.00;0.60;;;;;;;11.48;50.64;99049.72;5034177;28;20508;-85
2021/05/25 07:17:59;;;;;;;2.75;0.70;;;;;;;11.30;51.43;99055.59;5033153;28;20436;-83
2021/05/25 07:20:26;;;;;;;1.95;0.60;;;;;;;11.40;52.54;99066.19;5033673;28;20057;-84
2021/05/25 07:23:07;;;;;;;0.65;0.40;;;;;;;11.02;51.61;99046.47;5034458;28;20056;-83
2021/05/25 07:25:36;;;;;;;2.67;0.30;;;;;;;10.98;52.33;99071.34;5034042;28;20500;-81
2021/05/25 07:28:05;;;;;;;1.07;0.40;;;;;;;10.98;53.10;99041.41;5033597;28;20056;-81
2021/05/25 07:30:35;;;;;;;1.30;0.52;;;;;;;11.09;52.38;99050.13;5033668;28;20448;-83
2021/05/25 07:33:09;;;;;;;0.93;0.38;;;;;;;11.04;52.03;99053.41;5033951;28;20081;-81
2021/05/25 07:35:37;;;;;;;0.57;0.40;;;;;;;11.05;52.30;99076.88;5033298;28;20057;-81
2021/05/25 07:38:04;;;;;;;0.40;0.40;;;;;;;10.86;53.35;99072.03;5033844;28;20053;-83
2021/05/25 07:40:33;;;;;;;0.55;0.40;;;;;;;10.66;53.66;99055.44;5033439;28;20049;-83
2021/05/25 07:43:01;;;;;;;1.45;0.57;;;;;;;10.56;53.21;99067.44;5033711;28;20053;-82
2021/05/25 07:45:28;;;;;;;0.65;0.65;;;;;;;10.74;53.21;99087.97;5032670;28;20075;-82
2021/05/25 07:47:54;;;;;;;3.30;0.60;;;;;;;10.75;53.74;99086.94;5033728;28;20053;-82
2021/05/25 07:50:23;;;;;;;1.45;0.63;;;;;;;10.46;53.58;99066.84;5033367;28;20071;-82
2021/05/25 07:52:51;;;;;;;1.75;0.45;;;;;;;10.61;53.53;99080.47;5033870;28;20484;-82
2021/05/25 07:55:20;;;;;;;0.85;0.68;;;;;;;10.59;54.44;99079.81;5033182;28;20049;-80
2021/05/25 07:57:47;;;;;;;0.70;0.40;;;;;;;10.54;53.48;99079.53;5033784;28;20469;-83
2021/05/25 08:00:15;;;;;;;2.22;0.55;;;;;;;10.63;53.34;99105.59;5033143;28;20432;-81
2021/05/25 08:02:43;;;;;;;1.13;0.40;;;;;;;10.57;53.86;99111.78;5033482;28;20053;-81
2021/05/25 08:05:10;;;;;;;5.07;0.60;;;;;;;10.40;53.75;99098.38;5032610;28;20049;-81
2021/05/25 08:07:38;;;;;;;3.20;0.50;;;;;;;10.32;55.47;99094.84;5019344;28;20046;-81
2021/05/25 08:10:06;;;;;;;0.30;0.30;;;;;;;10.49;55.77;99129.00;5017024;28;20424;-80
2021/05/25 08:12:32;;;;;;;2.45;1.10;;;;;;;10.40;55.32;99136.41;5032968;28;20053;-80
2021/05/25 08:15:00;;;;;;;1.10;0.75;;;;;;;10.62;57.03;99136.53;5032671;28;20057;-80
2021/05/25 08:17:38;;;;;;;1.92;0.40;;;;;;;10.60;55.92;99141.31;5033217;28;20511;-82
2021/05/25 08:20:15;;;;;;;2.47;0.57;;;;;;;10.78;53.40;99141.78;5033349;28;20049;-81
2021/05/25 08:22:43;;;;;;;2.22;0.60;;;;;;;10.58;51.74;99110.75;5017591;28;20085;-83
2021/05/25 08:25:23;;;;;;;1.35;0.52;;;;;;;10.60;52.23;99144.03;5032815;28;20049;-83
2021/05/25 08:27:49;;;;;;;1.60;0.35;;;;;;;10.44;52.41;99145.88;5032766;28;20053;-83
2021/05/25 08:30:18;;;;;;;0.45;0.30;;;;;;;10.52;54.35;99142.22;5032694;28;20045;-81
2021/05/25 08:32:46;;;;;;;0.55;0.40;;;;;;;10.48;54.07;99151.78;5032695;28;20425;-81
2021/05/25 08:35:13;;;;;;;0.70;0.70;;;;;;;10.45;52.89;99146.72;5032375;28;20057;-82
2021/05/25 08:37:40;;;;;;;3.47;1.25;;;;;;;10.56;53.19;99159.03;5031865;28;20057;-82
2021/05/25 08:40:10;;;;;;;0.20;0.20;;;;;;;10.69;53.47;99155.66;5032591;28;20053;-80
2021/05/25 08:42:36;;;;;;;;;;;;;;;10.57;53.58;99164.28;5032954;28;20045;-83
2021/05/25 08:45:04;;;;;;;2.05;0.52;;;;;;;10.70;54.48;99147.31;5031187;28;20391;-82
2021/05/25 08:47:30;;;;;;;1.65;0.50;;;;;;;10.82;54.94;99149.56;5032412;28;20053;-81
2021/05/25 08:49:57;;;;;;;0.38;0.38;;;;;;;11.01;53.81;99161.78;5032123;28;20379;-81
2021/05/25 08:52:24;;;;;;;0.30;0.30;;;;;;;11.01;52.86;99143.56;5031968;28;20091;-82
2021/05/25 08:54:51;;;;;;;5.65;1.23;;;;;;;11.32;53.28;99164.25;5031337;28;20051;-81
2021/05/25 08:57:22;;;;;;;1.55;0.73;;;;;;;11.50;52.57;99167.44;5032261;28;20111;-82
2021/05/25 08:59:48;;;;;;;0.73;0.43;;;;;;;11.18;53.19;99163.25;5032149;28;20057;-82
2021/05/25 09:02:14;;;;;;;2.08;0.60;;;;;;;11.11;53.96;99182.22;5012948;28;20409;-80
2021/05/25 09:05:00;;;;;;;3.72;0.40;;;;;;;11.15;54.35;99185.41;5012349;28;20046;-81
2021/05/25 09:07:39;;;;;;;1.17;0.45;;;;;;;11.14;53.97;99192.72;5030411;28;20041;-83
2021/05/25 09:10:09;;;;;;;1.90;0.60;;;;;;;11.03;53.90;99203.22;5024674;28;20038;-83
2021/05/25 09:12:41;;;;;;;2.45;0.63;;;;;;;11.07;54.26;99210.81;5024270;28;20045;-82
2021/05/25 09:15:09;;;;;;;2.78;0.50;;;;;;;10.91;54.93;99216.44;5031806;28;20049;-82
2021/05/25 09:17:38;;;;;;;4.13;0.88;;;;;;;10.80;55.56;99204.97;5031991;28;20053;-83
2021/05/25 09:20:08;;;;;;;4.72;0.70;;;;;;;10.61;55.11;99208.22;5031741;28;20087;-84
2021/05/25 09:22:44;;;;;;;0.85;0.40;;;;;;;10.48;56.32;99203.44;5031597;28;20247;-83
2021/05/25 09:25:18;;;;;;;6.70;1.00;;;;;;;10.50;56.88;99233.16;5029317;28;20042;-83
2021/05/25 09:30:57;;;;;;;0.70;0.40;;;;;;;10.76;54.44;99217.28;4972490;28;20141;-81
2021/05/25 09:33:24;;;;;;;1.98;0.60;;;;;;;10.92;53.89;99218.97;5031757;28;20085;-83
2021/05/25 09:35:52;;;;;;;3.40;0.50;;;;;;;10.92;53.73;99208.09;5033330;28;20171;-82
2021/05/25 09:38:20;;;;;;;1.67;0.38;;;;;;;11.06;55.01;99222.72;5033338;28;20057;-82
2021/05/25 09:40:48;;;;;;;2.15;0.60;;;;;;;11.33;55.22;99225.84;5033529;28;20053;-83
2021/05/25 09:43:18;;;;;;;1.27;0.63;;;;;;;11.37;54.33;99223.59;5033608;28;20061;-85
2021/05/25 09:45:57;;;;;;;6.40;0.60;;;;;;;11.43;55.24;99209.22;5033204;28;20064;-82
2021/05/25 09:48:25;;;;;;;3.38;0.60;;;;;;;11.81;53.45;99218.06;5032413;28;20049;-83
2021/05/25 09:50:54;;;;;;;4.22;0.50;;;;;;;11.71;54.42;99227.59;5029665;28;20054;-83
2021/05/25 09:53:46;;;;;;;1.13;0.70;;;;;;;11.58;53.76;99231.00;5031807;28;20041;-82
2021/05/25 09:56:21;;;;;;;5.85;0.55;;;;;;;11.48;53.34;99234.84;5030451;28;20049;-80
2021/05/25 09:58:47;;;;;;;3.92;0.70;;;;;;;11.77;51.60;99226.81;5023563;28;20073;-82
2021/05/25 10:01:14;;;;;;;2.20;0.52;;;;;;;12.00;51.79;99227.53;5017664;28;20103;-83
2021/05/25 10:03:45;;;;;;;1.25;0.40;;;;;;;12.01;51.08;99214.75;5031287;28;20057;-83
2021/05/25 10:06:12;;;;;;;2.90;1.05;;;;;;;12.29;50.59;99212.13;5030986;28;20098;-84
2021/05/25 10:08:42;;;;;;;1.58;0.70;;;;;;;12.29;51.60;99189.47;5032910;28;20144;-83
2021/05/25 10:11:09;;;;;;;4.43;1.27;;;;;;;12.10;51.54;99231.84;5035746;28;20057;-85
2021/05/25 10:13:36;;;;;;;2.40;0.85;;;;;;;11.55;55.62;99251.28;5035239;28;20107;-83
2021/05/25 10:16:02;;;;;;;8.48;1.88;;;;;;;10.61;65.98;99265.31;5023624;28;20066;-81
2021/05/25 10:18:37;;;;;;;3.15;0.93;;;;;;;9.98;70.23;99275.41;5022327;28;20053;-80
2021/05/25 10:21:06;;;;;;;3.78;0.85;;;;;;;9.61;72.85;99261.50;5035120;28;20497;-79
2021/05/25 10:23:33;;;;;;;4.13;0.90;;;;;;;10.59;73.70;99268.22;5034788;28;20502;-79
2021/05/25 10:26:02;;;;;;;2.75;1.00;;;;;;;11.02;70.29;99266.81;5034664;28;20485;-80
2021/05/25 10:28:29;;;;;;;3.28;0.70;;;;;;;11.50;68.69;99256.41;5034938;28;20053;-80
2021/05/25 10:30:57;;;;;;;0.43;0.40;;;;;;;11.97;71.35;99252.44;5034204;28;20045;-80
2021/05/25 10:33:43;;;;;;;7.28;0.80;;;;;;;12.48;66.85;99237.03;5034970;28;20045;-81
2021/05/25 10:36:10;;;;;;;2.42;0.60;;;;;;;12.79;63.02;99231.22;5034515;28;20409;-82
2021/05/25 10:38:55;;;;;;;3.92;0.93;;;;;;;12.85;59.29;99241.34;5034943;28;20053;-79
2021/05/25 10:41:31;;;;;;;1.42;0.80;;;;;;;12.91;60.26;99247.91;5014353;28;20091;-81
2021/05/25 10:43:58;;;;;;;2.28;0.52;;;;;;;12.92;59.28;99244.97;5015181;28;20120;-80
2021/05/25 10:46:30;;;;;;;7.10;0.52;;;;;;;12.36;57.80;99262.09;5020433;28;20065;-79
2021/05/25 10:49:07;;;;;;;1.20;0.43;;;;;;;12.18;55.79;99239.91;5014955;28;20045;-83
2021/05/25 10:52:13;;;;;;;0.75;0.60;;;;;;;12.09;55.57;99260.97;5023670;28;20049;-82
2021/05/25 10:55:05;;;;;;;2.92;0.68;;;;;;;11.90;56.05;99250.66;5034177;28;20124;-81
2021/05/25 10:57:38;;;;;;;0.30;0.30;;;;;;;11.67;56.28;99263.38;5034290;28;20053;-82
2021/05/25 11:00:09;;;;;;;2.78;0.82;;;;;;;11.60;57.18;99281.50;5034565;28;20588;-81
2021/05/25 11:03:01;;;;;;;0.43;0.40;;;;;;;11.52;55.49;99274.28;5033842;28;20258;-82
2021/05/25 11:05:46;;;;;;;1.65;0.60;;;;;;;11.79;54.21;99281.97;5014134;28;20115;-82
2021/05/25 11:08:29;;;;;;;6.10;0.65;;;;;;;11.73;53.45;99286.28;5034076;28;20536;-84
2021/05/25 11:11:13;;;;;;;0.90;0.50;;;;;;;11.82;53.50;99292.47;5035355;28;20068;-82
2021/05/25 11:13:45;;;;;;;3.80;0.52;;;;;;;12.00;52.49;99283.94;5033874;28;20045;-82
2021/05/25 11:16:14;;;;;;;2.08;0.40;;;;;;;12.07;52.95;99264.91;5034196;28;20485;-84
2021/05/25 11:18:47;;;;;;;0.60;0.40;;;;;;;12.58;53.72;99286.63;5033541;28;20045;-85
2021/05/25 11:21:46;;;;;;;1.92;1.08;;;;;;;13.40;49.67;99277.03;5033186;28;20049;-83
2021/05/25 11:24:28;;;;;;;0.43;0.32;;;;;;;13.36;48.02;99280.38;5034234;28;20089;-83
2021/05/25 11:27:00;;;;;;;3.45;0.70;;;;;;;12.76;50.34;99267.06;5034159;28;20183;-82
2021/05/25 11:29:28;;;;;;;1.20;0.63;;;;;;;12.60;51.45;99262.75;5033785;28;20046;-80
2021/05/25 11:31:58;;;;;;;0.30;0.30;;;;;;;12.76;51.89;99278.00;5034187;28;20060;-81
2021/05/25 11:34:28;;;;;;;0.85;0.47;;;;;;;13.61;52.20;99267.09;5033454;28;20053;-82
2021/05/25 11:37:03;;;;;;;2.72;0.70;;;;;;;13.54;47.82;99263.47;5015435;28;20421;-83
2021/05/25 11:39:32;;;;;;;0.98;0.50;;;;;;;13.88;47.24;99272.66;5013960;28;20046;-81
2021/05/25 11:41:59;;;;;;;1.13;0.60;;;;;;;14.03;46.02;99256.97;5029393;28;20539;-80
2021/05/25 11:44:34;;;;;;;0.50;0.50;;;;;;;14.24;44.32;99255.09;5033439;28;20057;-82
2021/05/25 11:47:05;;;;;;;1.52;0.47;;;;;;;14.13;46.17;99253.81;5033635;28;20049;-82
2021/05/25 11:49:34;;;;;;;2.17;0.50;;;;;;;13.42;45.84;99255.81;5034029;28;20382;-81
2021/05/25 11:52:15;;;;;;;5.57;1.60;;;;;;;13.45;46.98;99230.00;5033239;28;20049;-82
2021/05/25 11:54:42;;;;;;;1.67;0.60;;;;;;;13.81;45.62;99261.69;5032654;28;20505;-81
2021/05/25 11:57:26;;;;;;;1.65;0.63;;;;;;;14.45;46.22;99244.03;5033454;28;20045;-82
2021/05/25 11:59:52;;;;;;;1.52;0.50;;;;;;;14.65;44.37;99245.97;5033123;28;20072;-82
2021/05/25 12:02:26;;;;;;;7.80;0.68;;;;;;;14.21;45.36;99248.19;5032955;28;20045;-82
2021/05/25 12:05:05;;;;;;;4.30;0.93;;;;;;;14.07;46.69;99243.72;5032646;28;20140;-81
2021/05/25 12:07:32;;;;;;;1.33;0.50;;;;;;;14.49;46.06;99247.16;5033134;28;20049;-81
2021/05/25 12:10:00;;;;;;;1.48;0.60;;;;;;;14.94;44.83;99233.75;5032647;28;20460;-82
2021/05/25 12:12:29;;;;;;;1.08;0.47;;;;;;;14.81;43.04;99244.69;5032503;28;20053;-83
2021/05/25 12:14:57;;;;;;;4.97;0.57;;;;;;;14.68;46.19;99234.59;5032717;28;20046;-82
2021/05/25 12:17:25;;;;;;;5.38;0.82;;;;;;;14.26;43.86;99231.97;5033176;28;20103;-82
2021/05/25 12:19:53;;;;;;;3.75;0.60;;;;;;;13.84;43.58;99238.59;5032881;28;20409;-81
2021/05/25 12:22:36;;;;;;;1.98;0.70;;;;;;;13.58;46.40;99256.56;5033381;28;20045;-82
2021/05/25 12:25:29;;;;;;;2.85;0.73;;;;;;;13.17;46.75;99255.44;5032682;28;20469;-81
2021/05/25 12:28:06;;;;;;;3.83;0.70;;;;;;;13.21;41.55;99272.25;5018453;28;20054;-82
2021/05/25 12:30:33;;;;;;;1.98;0.32;;;;;;;13.66;41.62;99264.56;5030440;28;20054;-81
2021/05/25 12:32:59;;;;;;;1.38;0.50;;;;;;;14.13;41.66;99253.81;5032742;28;20065;-81
2021/05/25 12:35:28;;;;;;;1.13;0.50;;;;;;;14.17;41.05;99260.56;5032797;28;20045;-80
2021/05/25 12:38:08;;;;;;;3.63;0.50;;;;;;;14.42;40.92;99260.84;5033281;28;20050;-83
2021/05/25 12:40:35;;;;;;;1.30;0.50;;;;;;;14.26;42.09;99250.28;5033207;28;20072;-80
2021/05/25 12:43:15;;;;;;;2.05;0.68;;;;;;;14.31;43.31;99261.44;5032259;28;20042;-81
2021/05/25 12:45:44;;;;;;;4.97;0.80;;;;;;;14.95;43.97;99251.84;5032382;28;20060;-81